Time;durP1;ratioP1;P1;durP2;ratioP2;P2;SDS_P1;SDS_P2;PMS_P1;PMS_P2;Temp;Humidity;BMP_temperature;BMP_pressure;BME280_temperature;BME280_humidity;BME280_pressure;Samples;Min_cycle;Max_cycle;Signal;HPM_P1;HPM_P2
2023/01/29 00:00:11;;;;;;;26.25;11.88;;;;;;;;;;5095158;28;20112;-86
2023/01/29 00:02:37;;;;;;;25.85;12.20;;;;;;;;;;5077146;28;20047;-87
2023/01/29 00:05:05;;;;;;;28.23;12.18;;;;;;;;;;5090480;28;20049;-86
2023/01/29 00:07:51;;;;;;;26.73;11.88;;;;;;;;;;5094926;28;20787;-86
2023/01/29 00:10:17;;;;;;;28.67;13.02;;;;;;;;;;5094283;28;20079;-86
2023/01/29 00:12:44;;;;;;;28.05;11.82;;;;;;;;;;5083740;28;20045;-86
2023/01/29 00:15:11;;;;;;;25.67;12.10;;;;;;;;;;5094733;28;20032;-86
2023/01/29 00:17:37;;;;;;;26.30;12.85;;;;;;;;;;5081871;28;20467;-86
2023/01/29 00:20:03;;;;;;;30.35;13.63;;;;;;;;;;5086458;28;20064;-86
2023/01/29 00:22:30;;;;;;;28.73;12.52;;;;;;;;;;5078155;28;20048;-86
2023/01/29 00:24:56;;;;;;;27.20;12.27;;;;;;;;;;5089239;28;20487;-86
2023/01/29 00:27:22;;;;;;;24.58;12.30;;;;;;;;;;5091081;28;20079;-86
2023/01/29 00:30:08;;;;;;;28.05;13.40;;;;;;;;;;5083153;28;20540;-86
2023/01/29 00:32:35;;;;;;;30.33;12.45;;;;;;;;;;5086759;28;20110;-87
2023/01/29 00:35:01;;;;;;;31.98;12.68;;;;;;;;;;5075413;28;20492;-86
2023/01/29 00:37:27;;;;;;;25.88;12.30;;;;;;;;;;5089362;28;20123;-86
2023/01/29 00:39:54;;;;;;;29.15;12.43;;;;;;;;;;5091917;28;20545;-86
2023/01/29 00:45:05;;;;;;;26.85;12.43;;;;;;;;;;5088271;28;20059;-86
2023/01/29 00:47:32;;;;;;;28.25;12.02;;;;;;;;;;5093003;28;20092;-86
2023/01/29 00:49:59;;;;;;;27.33;12.90;;;;;;;;;;5087907;28;20103;-86
2023/01/29 00:52:26;;;;;;;26.42;12.20;;;;;;;;;;5090792;28;20140;-86
2023/01/29 00:54:53;;;;;;;24.90;11.80;;;;;;;;;;5082142;28;20946;-87
2023/01/29 00:57:20;;;;;;;29.48;13.23;;;;;;;;;;5073055;28;20056;-86
2023/01/29 00:59:46;;;;;;;25.30;12.00;;;;;;;;;;5088618;28;20056;-86
2023/01/29 01:04:58;;;;;;;24.35;11.30;;;;;;;;;;5081585;28;20518;-86
2023/01/29 01:07:24;;;;;;;28.92;12.90;;;;;;;;;;5092327;28;20088;-86
2023/01/29 01:12:36;;;;;;;28.40;12.13;;;;;;;;;;5082786;28;20057;-86
2023/01/29 01:15:02;;;;;;;24.58;12.18;;;;;;;;;;5084302;28;20049;-86
2023/01/29 01:17:29;;;;;;;24.23;11.95;;;;;;;;;;5080586;28;20087;-86
2023/01/29 01:19:55;;;;;;;23.55;11.32;;;;;;;;;;5090970;28;20143;-86
2023/01/29 01:22:21;;;;;;;24.63;11.25;;;;;;;;;;5088044;28;20514;-86
2023/01/29 01:24:48;;;;;;;27.95;11.90;;;;;;;;;;5086341;28;20061;-86
2023/01/29 01:27:15;;;;;;;26.17;13.02;;;;;;;;;;5082300;28;20048;-86
2023/01/29 01:29:41;;;;;;;27.95;11.85;;;;;;;;;;5079170;28;20096;-86
2023/01/29 01:32:08;;;;;;;26.70;12.10;;;;;;;;;;5083709;28;20056;-86
2023/01/29 01:34:34;;;;;;;27.58;13.52;;;;;;;;;;5106755;27;20049;-86
2023/01/29 01:37:01;;;;;;;29.52;13.02;;;;;;;;;;5082215;28;20057;-86
2023/01/29 01:39:27;;;;;;;31.08;13.10;;;;;;;;;;5091563;28;20049;-86
2023/01/29 01:41:53;;;;;;;27.95;13.15;;;;;;;;;;5083926;28;20431;-86
2023/01/29 01:44:39;;;;;;;27.35;12.48;;;;;;;;;;5083504;28;20510;-86
2023/01/29 01:47:05;;;;;;;29.15;13.07;;;;;;;;;;5083366;28;20083;-86
2023/01/29 01:49:31;;;;;;;27.52;12.35;;;;;;;;;;5091181;28;20052;-86
2023/01/29 01:51:59;;;;;;;25.45;12.30;;;;;;;;;;5082836;28;20053;-86
2023/01/29 01:54:28;;;;;;;28.63;13.18;;;;;;;;;;5078185;28;20076;-87
2023/01/29 01:57:03;;;;;;;28.05;13.75;;;;;;;;;;5082085;28;20088;-86
2023/01/29 01:59:31;;;;;;;26.90;12.40;;;;;;;;;;5084146;28;20500;-86
2023/01/29 02:01:57;;;;;;;25.73;12.65;;;;;;;;;;5073510;28;20067;-87
2023/01/29 02:10:05;;;;;;;26.98;11.90;;;;;;;;;;5096683;28;20036;-87
2023/01/29 02:12:31;;;;;;;27.20;12.15;;;;;;;;;;5099602;28;20048;-87
2023/01/29 02:14:58;;;;;;;27.40;13.00;;;;;;;;;;5139733;27;20033;-87
2023/01/29 02:17:25;;;;;;;23.95;12.10;;;;;;;;;;5104998;28;20065;-86
2023/01/29 02:19:54;;;;;;;29.00;12.82;;;;;;;;;;5090295;28;20051;-86
2023/01/29 02:22:28;;;;;;;24.17;12.35;;;;;;;;;;5076280;28;20053;-85
2023/01/29 02:24:58;;;;;;;27.33;12.32;;;;;;;;;;5074026;28;20116;-87
2023/01/29 02:27:30;;;;;;;27.60;12.25;;;;;;;;;;5086901;28;20553;-87
2023/01/29 02:30:03;;;;;;;26.90;12.20;;;;;;;;;;5102184;28;20049;-86
2023/01/29 02:32:34;;;;;;;25.98;12.40;;;;;;;;;;5081519;28;20048;-86
2023/01/29 02:37:56;;;;;;;28.80;12.52;;;;;;;;;;5073483;28;20136;-86
2023/01/29 02:40:35;;;;;;;28.75;11.77;;;;;;;;;;5071937;28;20064;-86
2023/01/29 02:43:13;;;;;;;27.58;12.07;;;;;;;;;;5082587;28;20862;-86
2023/01/29 02:45:45;;;;;;;27.80;12.10;;;;;;;;;;5087193;28;20052;-86
2023/01/29 02:48:16;;;;;;;28.45;12.60;;;;;;;;;;5085125;28;20526;-86
2023/01/29 02:50:45;;;;;;;28.80;13.13;;;;;;;;;;5075673;28;20401;-86
2023/01/29 02:53:17;;;;;;;25.73;12.30;;;;;;;;;;5067024;28;20056;-86
2023/01/29 02:55:44;;;;;;;26.13;12.27;;;;;;;;;;5086972;28;20173;-86
2023/01/29 02:58:16;;;;;;;30.73;13.10;;;;;;;;;;5083900;28;20045;-86
2023/01/29 03:00:44;;;;;;;29.48;13.57;;;;;;;;;;5074327;28;20161;-86
2023/01/29 03:03:18;;;;;;;27.27;12.25;;;;;;;;;;5085477;28;20831;-86
2023/01/29 03:05:57;;;;;;;29.63;12.13;;;;;;;;;;5104555;27;20663;-86
2023/01/29 03:08:35;;;;;;;27.65;12.88;;;;;;;;;;5072425;28;20067;-86
2023/01/29 03:11:03;;;;;;;28.60;13.93;;;;;;;;;;5070389;28;20589;-87
2023/01/29 03:13:35;;;;;;;30.05;13.77;;;;;;;;;;5070561;28;20502;-86
2023/01/29 03:16:05;;;;;;;28.40;14.05;;;;;;;;;;5087043;28;20052;-86
2023/01/29 03:18:36;;;;;;;28.53;13.30;;;;;;;;;;5076355;28;20057;-86
2023/01/29 03:21:49;;;;;;;28.50;12.95;;;;;;;;;;5070673;28;20761;-86
2023/01/29 03:32:10;;;;;;;28.83;12.80;;;;;;;;;;5089937;28;20147;-86
2023/01/29 03:34:42;;;;;;;27.08;12.95;;;;;;;;;;5082835;28;20684;-87
2023/01/29 03:37:35;;;;;;;30.95;14.13;;;;;;;;;;5080585;28;20131;-86
2023/01/29 03:40:02;;;;;;;30.08;13.30;;;;;;;;;;5090437;28;20507;-86
2023/01/29 03:42:37;;;;;;;28.02;13.13;;;;;;;;;;5074485;28;20059;-86
2023/01/29 03:45:04;;;;;;;29.75;12.70;;;;;;;;;;5069785;28;20049;-86
2023/01/29 03:47:53;;;;;;;30.52;13.77;;;;;;;;;;5087563;28;20056;-86
2023/01/29 03:50:32;;;;;;;27.77;13.45;;;;;;;;;;5082380;28;20073;-86
2023/01/29 03:53:03;;;;;;;30.35;13.77;;;;;;;;;;5082375;28;20056;-86
2023/01/29 03:55:34;;;;;;;30.13;14.10;;;;;;;;;;5079259;28;20512;-86
2023/01/29 03:58:07;;;;;;;33.85;14.35;;;;;;;;;;5076356;28;20059;-87
2023/01/29 04:00:39;;;;;;;31.55;13.57;;;;;;;;;;5091941;28;20056;-86
2023/01/29 04:03:15;;;;;;;31.48;13.60;;;;;;;;;;5085245;28;20056;-86
2023/01/29 04:05:43;;;;;;;30.67;14.50;;;;;;;;;;5074374;28;20057;-86
2023/01/29 04:08:13;;;;;;;31.15;14.32;;;;;;;;;;5077716;28;20053;-86
2023/01/29 04:10:40;;;;;;;33.67;14.85;;;;;;;;;;5086086;28;20056;-86
2023/01/29 04:13:11;;;;;;;31.33;14.38;;;;;;;;;;5088184;28;20107;-86
2023/01/29 04:15:39;;;;;;;32.22;14.38;;;;;;;;;;5107662;27;20052;-86
2023/01/29 04:18:06;;;;;;;30.95;14.00;;;;;;;;;;5075974;28;20053;-86
2023/01/29 04:20:33;;;;;;;31.15;14.50;;;;;;;;;;5082204;28;20144;-86
2023/01/29 04:23:00;;;;;;;29.80;14.13;;;;;;;;;;5075562;28;20052;-86
2023/01/29 04:25:29;;;;;;;28.67;13.75;;;;;;;;;;5082076;28;20048;-86
2023/01/29 04:28:01;;;;;;;33.17;14.98;;;;;;;;;;5085643;28;20049;-86
2023/01/29 04:30:32;;;;;;;32.63;15.07;;;;;;;;;;5092425;27;20137;-87
2023/01/29 04:33:13;;;;;;;33.28;14.65;;;;;;;;;;5069233;28;20534;-86
2023/01/29 04:35:53;;;;;;;31.38;13.75;;;;;;;;;;5101296;27;20540;-87
2023/01/29 04:38:39;;;;;;;31.67;14.55;;;;;;;;;;5069270;28;20061;-86
2023/01/29 04:41:10;;;;;;;31.00;14.27;;;;;;;;;;5078314;28;20056;-86
2023/01/29 04:43:36;;;;;;;31.73;13.90;;;;;;;;;;5086129;28;20083;-86
2023/01/29 04:46:14;;;;;;;32.50;14.50;;;;;;;;;;5077631;28;20060;-87
2023/01/29 04:48:43;;;;;;;29.35;13.95;;;;;;;;;;5074032;28;20139;-86
2023/01/29 04:51:28;;;;;;;35.13;15.50;;;;;;;;;;5081086;28;20055;-86
2023/01/29 04:54:01;;;;;;;28.10;14.50;;;;;;;;;;5089239;28;20045;-87
2023/01/29 04:56:46;;;;;;;29.75;13.82;;;;;;;;;;5086903;28;20103;-86
2023/01/29 04:59:16;;;;;;;31.58;15.25;;;;;;;;;;5081681;28;20155;-86
2023/01/29 05:01:42;;;;;;;29.13;14.45;;;;;;;;;;5079386;28;20604;-86
2023/01/29 05:04:10;;;;;;;33.35;14.27;;;;;;;;;;5121049;27;20519;-86
2023/01/29 05:06:38;;;;;;;28.95;13.75;;;;;;;;;;5085561;28;20080;-86
2023/01/29 05:09:04;;;;;;;30.58;13.75;;;;;;;;;;5078662;28;20053;-86
2023/01/29 05:11:31;;;;;;;31.80;14.13;;;;;;;;;;5077238;28;20191;-86
2023/01/29 05:14:00;;;;;;;30.90;14.80;;;;;;;;;;5077180;28;20052;-86
2023/01/29 05:16:28;;;;;;;28.83;13.93;;;;;;;;;;5087181;28;20057;-86
2023/01/29 05:18:54;;;;;;;30.85;14.90;;;;;;;;;;5080688;28;20508;-86
2023/01/29 05:21:22;;;;;;;27.80;14.45;;;;;;;;;;5069045;28;20053;-86
2023/01/29 05:24:07;;;;;;;29.42;14.35;;;;;;;;;;5084411;28;20609;-86
2023/01/29 05:29:19;;;;;;;33.50;15.38;;;;;;;;;;5076363;28;20815;-86
2023/01/29 05:31:46;;;;;;;29.92;14.20;;;;;;;;;;5071644;28;20056;-87
2023/01/29 05:34:12;;;;;;;29.48;14.13;;;;;;;;;;5075766;28;20127;-86
2023/01/29 05:36:38;;;;;;;27.73;14.05;;;;;;;;;;5069307;28;20053;-86
2023/01/29 05:39:05;;;;;;;29.98;14.20;;;;;;;;;;5068854;28;20069;-86
2023/01/29 05:41:32;;;;;;;29.25;14.20;;;;;;;;;;5085495;28;20112;-86
2023/01/29 05:43:58;;;;;;;27.38;13.27;;;;;;;;;;5074990;28;20147;-87
2023/01/29 05:46:25;;;;;;;27.00;13.50;;;;;;;;;;5073658;28;20512;-87
2023/01/29 05:48:51;;;;;;;29.08;14.00;;;;;;;;;;5086229;28;20519;-87
2023/01/29 05:51:18;;;;;;;30.10;13.80;;;;;;;;;;5085034;28;20531;-87
2023/01/29 05:53:44;;;;;;;30.00;13.98;;;;;;;;;;5077932;28;20551;-87
2023/01/29 05:56:10;;;;;;;27.08;14.60;;;;;;;;;;5071529;28;20045;-87
2023/01/29 05:58:37;;;;;;;27.38;13.43;;;;;;;;;;5081505;28;20064;-87
2023/01/29 06:01:22;;;;;;;27.10;14.43;;;;;;;;;;5071006;28;20053;-86
2023/01/29 06:03:49;;;;;;;31.17;14.43;;;;;;;;;;5087058;28;20068;-86
2023/01/29 06:06:15;;;;;;;26.40;13.05;;;;;;;;;;5079237;28;20056;-86
2023/01/29 06:08:42;;;;;;;31.98;15.07;;;;;;;;;;5076389;28;20079;-86
2023/01/29 06:11:09;;;;;;;26.20;12.98;;;;;;;;;;5074893;28;20052;-86
2023/01/29 06:13:36;;;;;;;28.92;13.80;;;;;;;;;;5082970;28;20442;-86
2023/01/29 06:16:05;;;;;;;26.48;13.60;;;;;;;;;;5079526;28;20136;-86
2023/01/29 06:18:32;;;;;;;27.77;14.05;;;;;;;;;;5087627;28;20057;-86
2023/01/29 06:21:02;;;;;;;27.63;14.50;;;;;;;;;;5088408;28;20053;-86
2023/01/29 06:23:29;;;;;;;30.10;13.80;;;;;;;;;;5074126;28;20056;-86
2023/01/29 06:26:02;;;;;;;25.95;13.85;;;;;;;;;;5082368;28;20478;-86
2023/01/29 06:28:28;;;;;;;34.67;13.48;;;;;;;;;;5069447;28;20052;-87
2023/01/29 06:30:59;;;;;;;29.58;13.77;;;;;;;;;;5081714;28;20045;-86
2023/01/29 06:33:45;;;;;;;27.08;13.30;;;;;;;;;;5087139;28;20485;-86
2023/01/29 06:36:12;;;;;;;28.73;13.68;;;;;;;;;;5077749;28;20048;-86
2023/01/29 06:38:38;;;;;;;29.23;14.23;;;;;;;;;;5066647;28;20063;-86
2023/01/29 06:41:11;;;;;;;29.50;14.25;;;;;;;;;;5080912;28;20064;-86
2023/01/29 06:43:38;;;;;;;26.92;13.40;;;;;;;;;;5077530;28;20053;-86
2023/01/29 06:46:06;;;;;;;28.15;14.35;;;;;;;;;;5068226;28;20491;-86
2023/01/29 06:48:32;;;;;;;26.30;13.35;;;;;;;;;;5074583;28;20504;-88
2023/01/29 06:51:03;;;;;;;28.67;13.70;;;;;;;;;;5082924;28;20570;-88
2023/01/29 06:53:31;;;;;;;29.17;14.13;;;;;;;;;;5076197;28;20060;-87
2023/01/29 06:55:58;;;;;;;27.98;14.20;;;;;;;;;;5068697;28;20190;-88
2023/01/29 06:58:25;;;;;;;27.23;13.20;;;;;;;;;;5075472;28;20061;-87
2023/01/29 07:00:51;;;;;;;26.27;13.23;;;;;;;;;;5075542;28;20053;-88
2023/01/29 07:03:18;;;;;;;28.33;13.43;;;;;;;;;;5082081;28;20087;-88
2023/01/29 07:05:51;;;;;;;28.67;13.70;;;;;;;;;;5103137;28;20052;-88
2023/01/29 07:08:18;;;;;;;26.23;13.05;;;;;;;;;;5097985;27;20530;-87
2023/01/29 07:10:44;;;;;;;28.27;14.23;;;;;;;;;;5089851;28;20049;-88
2023/01/29 07:13:11;;;;;;;28.92;14.57;;;;;;;;;;5083144;28;20426;-87
2023/01/29 07:15:37;;;;;;;28.90;14.52;;;;;;;;;;5083974;28;20080;-87
2023/01/29 07:18:10;;;;;;;28.77;14.70;;;;;;;;;;5069632;28;20052;-87
2023/01/29 07:20:38;;;;;;;25.92;14.15;;;;;;;;;;5078391;28;20883;-87
2023/01/29 07:23:05;;;;;;;29.60;14.32;;;;;;;;;;5076861;28;20581;-87
2023/01/29 07:25:36;;;;;;;26.63;13.68;;;;;;;;;;5077749;28;20056;-86
2023/01/29 07:28:02;;;;;;;27.23;13.77;;;;;;;;;;5086229;28;20106;-86
2023/01/29 07:30:29;;;;;;;26.63;14.00;;;;;;;;;;5081484;28;20049;-86
2023/01/29 07:32:59;;;;;;;28.17;14.60;;;;;;;;;;5090216;28;20052;-86
2023/01/29 07:35:26;;;;;;;27.67;14.48;;;;;;;;;;5089834;28;20060;-86
2023/01/29 07:37:52;;;;;;;31.05;14.68;;;;;;;;;;5087861;28;20124;-86
2023/01/29 07:40:18;;;;;;;28.08;13.98;;;;;;;;;;5089603;22;20091;-86
2023/01/29 07:42:45;;;;;;;30.83;14.77;;;;;;;;;;5031027;28;20515;-87
2023/01/29 07:45:12;;;;;;;29.80;14.13;;;;;;;;;;5047395;28;20059;-87
2023/01/29 07:47:38;;;;;;;28.35;14.07;;;;;;;;;;5049647;28;20057;-87
2023/01/29 07:50:12;;;;;;;27.45;13.77;;;;;;;;;;5029892;28;20054;-87
2023/01/29 07:52:57;;;;;;;27.38;13.95;;;;;;;;;;5014285;28;20058;-87
2023/01/29 07:55:24;;;;;;;27.30;13.32;;;;;;;;;;5029945;28;20501;-87
2023/01/29 07:57:57;;;;;;;29.17;14.57;;;;;;;;;;5027711;28;20058;-87
2023/01/29 08:00:24;;;;;;;27.15;13.05;;;;;;;;;;5028379;28;20576;-87
2023/01/29 08:02:51;;;;;;;31.55;13.73;;;;;;;;;;5017216;28;20521;-87
2023/01/29 08:05:19;;;;;;;32.65;14.23;;;;;;;;;;5028756;28;20136;-87
2023/01/29 08:07:51;;;;;;;28.17;13.55;;;;;;;;;;5017232;28;20521;-88
2023/01/29 08:10:31;;;;;;;23.63;12.43;;;;;;;;;;5022575;28;20050;-87
2023/01/29 08:12:58;;;;;;;27.42;13.35;;;;;;;;;;5022525;28;20137;-87
2023/01/29 08:15:25;;;;;;;29.65;14.35;;;;;;;;;;5026951;28;20058;-87
2023/01/29 08:17:54;;;;;;;29.80;14.73;;;;;;;;;;5024546;28;20601;-87
2023/01/29 08:20:23;;;;;;;29.00;13.45;;;;;;;;;;5021457;28;20113;-87
2023/01/29 08:22:57;;;;;;;28.40;13.90;;;;;;;;;;5029761;28;20050;-87
2023/01/29 08:25:23;;;;;;;28.50;14.30;;;;;;;;;;5015805;28;20054;-87
2023/01/29 08:27:50;;;;;;;29.08;13.77;;;;;;;;;;5022414;28;20670;-87
2023/01/29 08:30:16;;;;;;;26.67;13.40;;;;;;;;;;5017514;28;20786;-87
2023/01/29 08:32:46;;;;;;;25.05;12.30;;;;;;;;;;5027957;28;20054;-87
2023/01/29 08:35:12;;;;;;;24.60;12.45;;;;;;;;;;5027886;28;20056;-87
2023/01/29 08:37:39;;;;;;;25.65;14.52;;;;;;;;;;5027647;28;20052;-88
2023/01/29 08:40:08;;;;;;;27.00;13.23;;;;;;;;;;5027029;28;20053;-87
2023/01/29 08:42:35;;;;;;;25.70;12.88;;;;;;;;;;5028814;28;20184;-87
2023/01/29 08:45:01;;;;;;;26.85;12.90;;;;;;;;;;5027682;28;20058;-88
2023/01/29 08:47:28;;;;;;;27.73;13.68;;;;;;;;;;5026788;28;20062;-88
2023/01/29 08:49:55;;;;;;;25.83;12.23;;;;;;;;;;5028086;28;20050;-87
2023/01/29 08:52:21;;;;;;;26.10;12.68;;;;;;;;;;5028884;28;20101;-87
2023/01/29 08:54:48;;;;;;;24.67;13.25;;;;;;;;;;5029861;28;20072;-87
2023/01/29 08:57:14;;;;;;;25.77;13.00;;;;;;;;;;5032483;28;20038;-87
2023/01/29 08:59:41;;;;;;;26.52;13.40;;;;;;;;;;5029847;28;20056;-87
2023/01/29 09:02:09;;;;;;;26.23;13.20;;;;;;;;;;5024049;28;20058;-87
2023/01/29 09:04:35;;;;;;;24.20;12.98;;;;;;;;;;5027033;28;21040;-88
2023/01/29 09:07:02;;;;;;;23.58;12.48;;;;;;;;;;5024562;28;20584;-87
2023/01/29 09:09:28;;;;;;;27.38;13.20;;;;;;;;;;5028198;28;20062;-87
2023/01/29 09:11:55;;;;;;;24.98;12.77;;;;;;;;;;5028197;28;20058;-87
2023/01/29 09:14:21;;;;;;;26.08;13.52;;;;;;;;;;5033111;28;20058;-87
2023/01/29 09:16:48;;;;;;;23.88;12.68;;;;;;;;;;5026447;28;20060;-87
2023/01/29 09:19:14;;;;;;;28.70;13.55;;;;;;;;;;5026760;28;20622;-87
2023/01/29 09:21:41;;;;;;;27.67;13.60;;;;;;;;;;5027923;28;20173;-87
2023/01/29 09:24:07;;;;;;;27.38;12.75;;;;;;;;;;5027531;28;20049;-86
2023/01/29 09:26:34;;;;;;;21.50;12.15;;;;;;;;;;5027594;28;20046;-88
2023/01/29 09:29:01;;;;;;;25.85;11.93;;;;;;;;;;5027219;28;20061;-87
2023/01/29 09:31:27;;;;;;;25.38;12.82;;;;;;;;;;5035809;28;20058;-87
2023/01/29 09:33:53;;;;;;;27.90;13.50;;;;;;;;;;5026444;28;20060;-87
2023/01/29 09:36:20;;;;;;;23.88;12.38;;;;;;;;;;5026404;28;20525;-87
2023/01/29 09:38:46;;;;;;;23.83;11.85;;;;;;;;;;5027006;28;20058;-88
2023/01/29 09:41:23;;;;;;;22.30;12.10;;;;;;;;;;5026911;28;20064;-87
2023/01/29 09:43:53;;;;;;;29.17;14.35;;;;;;;;;;5015961;28;20104;-87
2023/01/29 09:46:32;;;;;;;26.07;12.73;;;;;;;;;;5025306;28;20444;-87
2023/01/29 09:49:14;;;;;;;24.67;12.90;;;;;;;;;;5041777;28;20840;-88
2023/01/29 09:51:43;;;;;;;27.27;13.07;;;;;;;;;;5027782;28;20169;-87
2023/01/29 09:54:13;;;;;;;26.77;12.45;;;;;;;;;;5028215;28;20173;-87
2023/01/29 09:56:40;;;;;;;26.73;13.33;;;;;;;;;;5025967;28;20137;-87
2023/01/29 09:59:09;;;;;;;26.02;12.68;;;;;;;;;;5017726;28;20278;-87
2023/01/29 10:01:49;;;;;;;24.00;11.80;;;;;;;;;;5025004;28;20517;-88
2023/01/29 10:04:23;;;;;;;26.42;12.25;;;;;;;;;;5027096;28;20075;-87
2023/01/29 10:07:01;;;;;;;23.67;12.40;;;;;;;;;;5007467;28;20061;-88
2023/01/29 10:09:50;;;;;;;28.73;14.10;;;;;;;;;;5006943;28;20551;-87
2023/01/29 10:12:23;;;;;;;26.02;11.95;;;;;;;;;;5016130;28;20523;-87
2023/01/29 10:14:55;;;;;;;26.15;12.65;;;;;;;;;;5026078;28;20058;-87
2023/01/29 10:17:28;;;;;;;27.13;13.02;;;;;;;;;;5016962;28;20064;-87
2023/01/29 10:19:57;;;;;;;23.73;12.95;;;;;;;;;;5025866;28;20050;-87
2023/01/29 10:22:35;;;;;;;24.20;12.02;;;;;;;;;;5028251;28;20062;-86
2023/01/29 10:25:03;;;;;;;24.25;12.65;;;;;;;;;;5026063;28;20050;-87
2023/01/29 10:27:37;;;;;;;25.20;13.18;;;;;;;;;;5027419;28;20061;-87
2023/01/29 10:30:10;;;;;;;25.48;12.90;;;;;;;;;;5027432;28;20053;-86
2023/01/29 10:32:39;;;;;;;26.50;12.85;;;;;;;;;;5030364;28;20472;-86
2023/01/29 10:35:17;;;;;;;25.00;12.40;;;;;;;;;;5026330;28;20064;-86
2023/01/29 10:37:44;;;;;;;24.23;12.43;;;;;;;;;;5024766;28;20050;-86
2023/01/29 10:40:28;;;;;;;21.90;11.73;;;;;;;;;;5025447;28;20441;-86
2023/01/29 10:43:02;;;;;;;28.10;13.43;;;;;;;;;;5028678;28;20058;-86
2023/01/29 10:45:33;;;;;;;28.63;13.20;;;;;;;;;;5027097;28;20061;-86
2023/01/29 10:48:09;;;;;;;26.30;13.38;;;;;;;;;;5025684;28;20175;-86
2023/01/29 10:50:58;;;;;;;27.00;13.70;;;;;;;;;;5018599;28;20560;-86
2023/01/29 10:53:33;;;;;;;24.85;13.32;;;;;;;;;;5019161;28;20053;-86
2023/01/29 10:56:21;;;;;;;30.00;17.55;;;;;;;;;;5028138;28;20053;-86
2023/01/29 10:59:15;;;;;;;29.73;14.35;;;;;;;;;;5026576;28;20058;-86
2023/01/29 11:01:41;;;;;;;25.38;12.15;;;;;;;;;;5021116;28;20054;-85
2023/01/29 11:04:10;;;;;;;24.92;12.23;;;;;;;;;;5023619;28;21067;-85
2023/01/29 11:06:37;;;;;;;31.55;14.30;;;;;;;;;;5028606;28;20089;-85
2023/01/29 11:09:22;;;;;;;31.33;13.55;;;;;;;;;;5026051;28;20042;-85
2023/01/29 11:11:53;;;;;;;28.35;13.35;;;;;;;;;;5025621;28;20054;-85
2023/01/29 11:14:27;;;;;;;29.75;13.85;;;;;;;;;;5023100;28;20080;-85
2023/01/29 11:16:54;;;;;;;32.10;13.48;;;;;;;;;;5025828;28;20531;-85
2023/01/29 11:19:40;;;;;;;29.48;14.18;;;;;;;;;;5027072;28;20062;-85
2023/01/29 11:22:20;;;;;;;28.42;14.52;;;;;;;;;;5027704;28;20509;-85
2023/01/29 11:25:06;;;;;;;32.30;15.27;;;;;;;;;;5027654;28;20096;-85
2023/01/29 11:27:34;;;;;;;30.73;15.25;;;;;;;;;;5028632;28;20528;-85
2023/01/29 11:30:00;;;;;;;33.33;15.80;;;;;;;;;;5026607;28;20054;-85
2023/01/29 11:32:32;;;;;;;33.22;16.35;;;;;;;;;;5026573;28;20049;-85
2023/01/29 11:34:59;;;;;;;35.97;16.02;;;;;;;;;;5024541;28;20089;-85
2023/01/29 11:37:31;;;;;;;30.00;15.55;;;;;;;;;;5028241;28;20065;-85
2023/01/29 11:39:57;;;;;;;32.17;16.17;;;;;;;;;;5021176;28;20077;-85
2023/01/29 11:42:29;;;;;;;30.17;14.55;;;;;;;;;;5025148;28;20045;-85
2023/01/29 11:44:55;;;;;;;32.63;15.73;;;;;;;;;;5025206;28;20508;-85
2023/01/29 11:47:25;;;;;;;29.42;15.25;;;;;;;;;;5026791;28;20531;-85
2023/01/29 11:50:01;;;;;;;40.17;18.45;;;;;;;;;;5027415;28;20086;-85
2023/01/29 11:52:35;;;;;;;33.80;17.08;;;;;;;;;;5031568;28;20057;-85
2023/01/29 11:55:04;;;;;;;62.53;28.38;;;;;;;;;;5025646;28;20283;-86
2023/01/29 11:57:33;;;;;;;44.20;21.33;;;;;;;;;;5029530;28;20524;-87
2023/01/29 12:00:03;;;;;;;36.58;17.52;;;;;;;;;;5027836;28;20489;-87
2023/01/29 12:02:34;;;;;;;31.20;16.55;;;;;;;;;;5025159;28;20145;-87
2023/01/29 12:05:03;;;;;;;30.97;16.03;;;;;;;;;;5027574;28;20065;-88
2023/01/29 12:07:30;;;;;;;32.22;15.35;;;;;;;;;;5026532;28;20344;-87
2023/01/29 12:09:59;;;;;;;33.85;15.48;;;;;;;;;;5027322;28;20527;-87
2023/01/29 12:12:25;;;;;;;34.92;17.58;;;;;;;;;;5028291;28;20058;-87
2023/01/29 12:15:01;;;;;;;37.30;15.75;;;;;;;;;;5020822;28;20609;-87
2023/01/29 12:17:29;;;;;;;32.58;16.75;;;;;;;;;;5028152;28;20057;-87
2023/01/29 12:20:00;;;;;;;33.78;16.48;;;;;;;;;;5027035;28;20058;-87
2023/01/29 12:22:46;;;;;;;32.17;17.02;;;;;;;;;;5025102;28;20054;-87
2023/01/29 12:25:35;;;;;;;31.70;16.58;;;;;;;;;;5027430;28;20050;-87
2023/01/29 12:28:01;;;;;;;33.13;16.27;;;;;;;;;;5029273;28;20049;-88
2023/01/29 12:30:51;;;;;;;38.65;16.80;;;;;;;;;;5024248;28;20089;-88
2023/01/29 12:33:21;;;;;;;30.73;15.02;;;;;;;;;;5003709;28;20094;-87
2023/01/29 12:36:00;;;;;;;31.00;16.35;;;;;;;;;;5014433;28;20517;-87
2023/01/29 12:38:28;;;;;;;32.78;15.55;;;;;;;;;;5025946;28;20147;-87
2023/01/29 12:41:03;;;;;;;32.58;15.82;;;;;;;;;;5028302;28;20057;-86
2023/01/29 12:43:41;;;;;;;36.03;17.17;;;;;;;;;;5027464;28;20053;-86
2023/01/29 12:46:11;;;;;;;31.65;15.27;;;;;;;;;;5025257;28;20058;-87
2023/01/29 12:48:40;;;;;;;35.25;17.33;;;;;;;;;;5026668;28;20069;-86
2023/01/29 12:51:10;;;;;;;36.80;16.95;;;;;;;;;;5025927;28;20062;-86
2023/01/29 12:53:42;;;;;;;39.92;17.52;;;;;;;;;;5027475;28;20084;-86
2023/01/29 12:56:24;;;;;;;36.78;18.30;;;;;;;;;;5026529;28;20057;-86
2023/01/29 12:58:52;;;;;;;41.90;22.93;;;;;;;;;;5023470;28;20531;-86
2023/01/29 13:01:30;;;;;;;41.10;21.42;;;;;;;;;;5025806;28;20317;-87
2023/01/29 13:04:10;;;;;;;41.45;19.35;;;;;;;;;;5019455;28;20053;-86
2023/01/29 13:06:45;;;;;;;44.05;22.98;;;;;;;;;;5026675;28;20064;-87
2023/01/29 13:09:15;;;;;;;36.15;17.58;;;;;;;;;;5026789;28;20054;-87
2023/01/29 13:11:53;;;;;;;35.42;17.05;;;;;;;;;;5025111;28;20136;-87
2023/01/29 13:17:48;;;;;;;33.78;17.15;;;;;;;;;;4976754;28;20042;-86
2023/01/29 13:20:22;;;;;;;33.00;17.27;;;;;;;;;;5028092;28;20065;-86
2023/01/29 13:22:50;;;;;;;33.10;16.08;;;;;;;;;;5024877;28;20281;-87
2023/01/29 13:25:19;;;;;;;37.80;17.67;;;;;;;;;;5025316;28;20058;-86
2023/01/29 13:27:46;;;;;;;36.97;17.52;;;;;;;;;;5027968;28;20532;-87
2023/01/29 13:30:26;;;;;;;35.35;16.30;;;;;;;;;;5031093;28;20089;-87
2023/01/29 13:32:54;;;;;;;33.72;17.30;;;;;;;;;;5022890;28;20064;-87
2023/01/29 13:35:21;;;;;;;31.33;17.05;;;;;;;;;;5024286;28;20062;-86
2023/01/29 13:37:52;;;;;;;36.35;16.98;;;;;;;;;;5025381;28;20058;-86
2023/01/29 13:40:27;;;;;;;33.17;16.98;;;;;;;;;;5020620;28;20543;-86
2023/01/29 13:42:57;;;;;;;42.08;19.20;;;;;;;;;;5030134;28;20547;-86
2023/01/29 13:45:43;;;;;;;36.95;17.58;;;;;;;;;;5022884;28;20145;-86
2023/01/29 13:48:22;;;;;;;35.20;17.00;;;;;;;;;;5015292;28;20062;-86
2023/01/29 13:50:50;;;;;;;35.60;17.08;;;;;;;;;;5026281;28;20050;-86
2023/01/29 13:53:27;;;;;;;32.85;16.38;;;;;;;;;;5027952;28;20548;-86
2023/01/29 13:55:57;;;;;;;31.25;16.08;;;;;;;;;;5026162;28;20069;-86
2023/01/29 13:58:33;;;;;;;33.38;18.00;;;;;;;;;;5026876;28;20072;-86
2023/01/29 14:01:00;;;;;;;32.35;16.30;;;;;;;;;;5026847;28;20054;-87
2023/01/29 14:03:27;;;;;;;33.22;16.52;;;;;;;;;;5027531;28;20049;-86
2023/01/29 14:06:01;;;;;;;32.95;17.15;;;;;;;;;;5025965;28;20058;-87
2023/01/29 14:08:33;;;;;;;33.42;16.92;;;;;;;;;;5023391;28;20117;-86
2023/01/29 14:11:15;;;;;;;30.52;16.48;;;;;;;;;;5025042;28;20058;-87
2023/01/29 14:13:45;;;;;;;31.92;15.80;;;;;;;;;;5025170;28;20050;-86
2023/01/29 14:16:13;;;;;;;30.58;16.05;;;;;;;;;;5024992;28;20149;-86
2023/01/29 14:18:47;;;;;;;34.38;16.83;;;;;;;;;;5024198;28;20058;-86
2023/01/29 14:21:15;;;;;;;32.30;16.13;;;;;;;;;;5028593;28;20054;-86
2023/01/29 14:23:42;;;;;;;35.15;17.40;;;;;;;;;;5026039;28;20133;-86
2023/01/29 14:26:29;;;;;;;28.70;15.52;;;;;;;;;;5028255;28;20513;-87
2023/01/29 14:28:58;;;;;;;34.40;16.08;;;;;;;;;;5027800;28;20045;-87
2023/01/29 14:31:29;;;;;;;34.92;16.63;;;;;;;;;;5026878;28;20101;-87
2023/01/29 14:33:55;;;;;;;;;;;;;;;;;;5029491;28;20105;-87
2023/01/29 14:36:25;;;;;;;31.95;16.15;;;;;;;;;;5025684;28;43653;-88
2023/01/29 14:38:51;;;;;;;31.85;17.00;;;;;;;;;;5045266;28;20598;-88
2023/01/29 14:41:32;;;;;;;33.45;16.63;;;;;;;;;;5032280;28;20433;-87
2023/01/29 14:44:25;;;;;;;29.73;14.35;;;;;;;;;;5022750;28;20634;-87
2023/01/29 14:46:51;;;;;;;32.50;16.10;;;;;;;;;;5008078;28;20054;-87
2023/01/29 14:49:38;;;;;;;27.48;14.10;;;;;;;;;;5024400;28;20060;-87
2023/01/29 14:52:07;;;;;;;36.20;18.25;;;;;;;;;;5005858;28;20528;-87
2023/01/29 14:54:37;;;;;;;38.22;18.80;;;;;;;;;;5022669;28;20608;-88
2023/01/29 14:57:05;;;;;;;34.80;17.50;;;;;;;;;;5026567;28;20508;-87
2023/01/29 14:59:33;;;;;;;34.00;16.45;;;;;;;;;;5026344;28;20117;-87
2023/01/29 15:02:11;;;;;;;30.30;15.65;;;;;;;;;;5024525;28;20061;-88
2023/01/29 15:04:41;;;;;;;35.22;17.10;;;;;;;;;;5024234;28;20480;-88
2023/01/29 15:07:08;;;;;;;35.83;17.85;;;;;;;;;;5027127;28;20502;-88
2023/01/29 15:09:56;;;;;;;30.38;16.80;;;;;;;;;;5026729;28;20050;-88